Latest Coastal Weather Observations for Cairns

IDQ60701

Issued at 7:21 am EST Tuesday 3 May 2016 (issued every 10 minutes, with the page automatically refreshed every 10 minutes)

About coastal observations | Map of coastal stations | Coastal observations for QLD | Marine services | Other Formats
Station Details ID: 031011 Name: CAIRNS AERO Lat: -16.87 Lon: 145.75 Height: 2.22 m
Data from the previous 72 hours. | See also: Recent months at Cairns
Date/Time
EST
Temp

°C
Wind Pressure Rain
since 9am
mm
Weather Cloud Vis
km
Sea
Height
m
Swell
Dir
 
Speed
knots
Gust
knots
hPa Trend Height
m
Period
s
Dir
03/07:00am 22.6 WSW 2 3 1014.3 - 0.2 - Mostly clear 10 - - - -
03/06:30am 22.2 WSW 5 6 1013.9 - 0.2 - Mostly clear 10 - - - -
03/06:00am 22.1 SSE 6 9 1013.6 R 0.2 Fine Mostly clear 10 - - - -
03/05:30am 21.6 CALM 0 0 1013.2 - 0.2 - Mostly clear 10 - - - -
03/05:00am 22.1 CALM 0 0 1013.1 - 0.2 - Mostly clear 10 - - - -
03/04:30am 22.2 S 2 5 1012.9 - 0.2 - Mostly clear 10 - - - -
03/04:00am 22.5 W 3 4 1012.9 - 0.2 - Mostly clear 10 - - - -
03/03:30am 22.6 WSW 2 4 1013.0 - 0.2 - Mostly clear 10 - - - -
03/03:00am 23.0 S 4 6 1013.1 F 0.2 Fine Mostly clear 10 - - - -
03/02:30am 23.2 SE 6 7 1013.3 - 0.2 - Mostly clear 10 - - - -
03/02:00am 23.2 WSW 3 5 1013.6 - 0.2 - Mostly clear 10 - - - -
03/01:30am 23.6 SE 8 10 1013.8 - 0.2 - Mostly clear 10 - - - -
03/01:00am 24.0 SE 7 9 1014.2 - 0.2 - Mostly clear 10 - - - -
03/12:30am 23.7 SSE 4 6 1014.6 - 0.2 - Mostly clear 10 - - - -
03/12:00am 23.5 NNE 1 4 1014.8 F 0.2 Fine Mostly clear 10 - - - -
 
Date/Time
EST
Temp

°C
Wind Pressure Rain
since 9am
mm
Weather Cloud Vis
km
Sea
Height
m
Swell
Dir
 
Speed
knots
Gust
knots
hPa Trend Height
m
Period
s
Dir
02/11:30pm 23.9 NNW 2 4 1015.0 - 0.2 - Mostly clear 10 - - - -
02/11:00pm 24.3 ESE 1 4 1015.1 - 0.2 - Mostly clear 10 - - - -
02/10:30pm 24.1 CALM 0 0 1015.1 - 0.2 - Mostly clear 10 - - - -
02/10:00pm 25.1 CALM 0 0 1015.2 - 0.2 - Mostly clear 10 - - - -
02/09:30pm 25.8 SSW 3 7 1015.1 - 0.2 - Mostly clear 10 - - - -
02/09:00pm 25.8 S 5 7 1015.1 R 0.2 Fine Mostly clear 10 - - - -
02/08:30pm 25.9 S 6 8 1015.1 - 0.2 - Mostly clear 10 - - - -
02/08:00pm 25.9 SSE 6 8 1014.9 - 0.2 - Mostly clear 10 - - - -
02/07:30pm 26.0 SSE 7 9 1014.5 - 0.2 - Mostly clear 10 - - - -
02/07:00pm 26.0 S 5 9 1014.1 - 0.2 - Mostly clear 10 - - - -
02/06:30pm 25.8 SSW 4 6 1013.6 - 0.2 - Mostly clear 10 - - - -
02/06:00pm 26.4 SSE 7 11 1013.1 R 0.2 Fine Mostly clear 10 - - - -
02/05:30pm 27.2 SSE 5 6 1012.7 - 0.2 - Mostly clear 10 - - - -
02/05:00pm 28.7 E 11 16 1012.3 - 0.2 - Mostly clear 10 - - - -
02/04:30pm 29.3 E 11 14 1011.9 - 0.2 - Mostly clear 10 - - - -
02/04:00pm 29.8 E 10 13 1011.6 - 0.2 - Mostly clear 10 - - - -
02/03:30pm 30.3 E 9 11 1011.5 - 0.2 - Mostly clear 10 - - - -
02/03:00pm 30.2 E 9 12 1011.6 F 0.2 Fine Mostly clear 10 - - - -
02/02:30pm 30.5 E 9 12 1011.6 - 0.2 - Mostly clear 10 - - - -
02/02:00pm 30.6 ENE 10 14 1011.9 - 0.2 - Mostly clear 10 - - - -
02/01:30pm 30.0 ENE 7 10 1012.4 - 0.2 - Mostly clear 10 - - - -
02/01:00pm 30.5 ENE 8 10 1012.9 - 0.2 - Mostly clear 10 - - - -
02/12:30pm 30.4 NE 8 11 1013.2 - 0.2 - Mostly clear 10 - - - -
02/12:00pm 29.2 ENE 7 9 1013.6 F 0.2 Fine Mostly clear 10 - - - -
02/11:30am 29.9 SE 7 11 1014.1 - 0.2 - Mostly clear 10 - - - -
02/11:00am 29.6 SE 7 10 1014.7 - 0.2 - Mostly clear 10 - - - -
02/10:30am 29.4 SE 8 11 1015.2 - 0.2 - Mostly clear 10 - - - -
02/10:00am 28.9 SSE 8 10 1015.4 - 0.0 - Mostly clear 10 - - - -
02/09:30am 28.5 SSE 8 11 1015.4 - 0.0 - Mostly clear 10 - - - -
02/09:00am 28.0 SSE 7 11 1015.3 F 0.2 Fine Mostly clear 10 - - - -
02/08:30am 26.8 ESE 8 10 1015.1 - 0.2 - Mostly clear 10 - - - -
02/08:00am 25.2 SE 10 11 1015.0 - 0.2 - Mostly clear 10 - - - -
02/07:30am 25.7 SSE 7 10 1014.8 - 0.2 - Mostly clear 10 - - - -
02/07:00am 25.3 SSE 7 9 1014.5 - 0.2 - Mostly clear 10 - - - -
02/06:46am 24.8 SE 7 9 1014.3 - 0.2 - Mostly clear 10 - - - -
02/06:30am 24.5 SE 5 8 1014.2 - 0.2 Fog Mostly clear 10 - - - -
02/06:00am 25.6 S 6 9 1014.0 R 0.2 Fine Mostly clear 10 - - - -
02/05:30am 25.6 SSE 7 10 1013.7 - 0.2 - Mostly clear 10 - - - -
02/05:00am 25.8 S 8 11 1013.7 - 0.2 - Mostly clear 10 - - - -
02/04:30am 24.9 SE 7 8 1013.4 - 0.2 - Mostly clear 10 - - - -
02/04:00am 25.0 SE 6 8 1013.2 - 0.2 - Mostly clear 10 - - - -
02/03:30am 25.7 SSE 5 8 1013.3 - 0.2 - Mostly clear 10 - - - -
02/03:00am 25.8 S 6 8 1013.3 F 0.2 Fine Mostly clear 10 - - - -
02/02:30am 25.3 SSE 7 10 1013.5 - 0.2 - Mostly clear 10 - - - -
02/02:00am 25.5 S 8 12 1013.8 - 0.2 - Mostly clear 10 - - - -
02/01:30am 25.3 SSE 8 11 1014.0 - 0.2 - Mostly clear 10 - - - -
02/01:00am 25.2 SSE 8 11 1014.5 - 0.2 - Mostly clear 10 - - - -
02/12:30am 25.0 SSE 9 13 1014.9 - 0.2 Showers Mostly clear 10 - - - -
02/12:00am 25.8 S 8 11 1015.0 S 0.2 Fine Mostly clear 10 - - - -
 
Date/Time
EST
Temp

°C
Wind Pressure Rain
since 9am
mm
Weather Cloud Vis
km
Sea
Height
m
Swell
Dir
 
Speed
knots
Gust
knots
hPa Trend Height
m
Period
s
Dir
01/11:30pm 25.7 SSE 8 11 1015.2 - 0.2 - Mostly clear 10 - - - -
01/11:00pm 26.0 SSW 5 8 1015.4 - 0.2 - Mostly clear 10 - - - -
01/10:30pm 25.3 S 9 15 1015.5 - 0.2 - Mostly clear 10 - - - -
01/10:00pm 25.3 SSE 9 12 1015.6 - 0.2 - Mostly clear 10 - - - -
01/09:30pm 26.3 S 9 14 1015.3 - 0.0 - Mostly clear 10 - - - -
01/09:00pm 26.0 S 9 12 1015.2 F 0.0 Fine Mostly clear 10 - - - -
01/08:30pm 26.1 SSE 7 10 1015.2 - 0.0 - Mostly clear 10 - - - -
01/08:00pm 26.3 S 8 12 1015.0 - 0.0 - Mostly clear 10 - - - -
01/07:30pm 26.0 SSE 8 10 1014.5 - 0.0 - Mostly clear 10 - - - -
01/07:00pm 26.3 SSE 8 9 1014.2 - 0.0 - Mostly clear 10 - - - -
01/06:30pm 26.8 SSE 7 10 1013.9 - 0.0 - Mostly clear 10 - - - -
01/06:00pm 26.7 SSE 7 9 1013.6 F 0.0 Fine Mostly clear 10 - - - -
01/05:30pm 27.7 SE 9 11 1013.4 - 0.0 - Mostly clear 10 - - - -
01/05:00pm 28.4 SE 9 12 1013.4 - 0.0 - Mostly clear 10 - - - -
01/04:30pm 28.4 SE 11 14 1013.1 - 0.0 - Mostly clear 10 - - - -
01/04:00pm 28.8 SE 13 16 1013.0 - 0.0 - Mostly clear 10 - - - -
01/03:30pm 29.1 SE 9 12 1013.0 - 0.0 - Mostly clear 10 - - - -
01/03:00pm 29.3 SE 12 16 1012.9 F 0.0 Fine Mostly clear 10 - - - -
01/02:30pm 29.1 SE 13 17 1013.3 - 0.0 - Mostly clear 10 - - - -
01/02:00pm 30.0 SE 10 14 1013.5 - 0.0 - Mostly clear 10 - - - -
01/01:30pm 29.0 SE 11 14 1013.9 - 0.0 - Mostly clear 10 - - - -
01/01:00pm 28.6 SSE 9 15 1014.3 - 0.0 - Mostly clear 10 - - - -
01/12:30pm 27.9 SSE 9 14 1014.7 - 0.0 - Mostly clear 10 - - - -
01/12:00pm 27.8 SSE 9 12 1015.0 F 0.0 Fine Mostly clear 10 - - - -
01/11:30am 27.4 SSE 9 14 1015.3 - 0.0 - Mostly clear 10 - - - -
01/11:00am 27.3 S 10 15 1015.9 - 0.0 - Mostly clear 10 - - - -
01/10:30am 26.3 S 11 16 1016.3 - 0.0 - Mostly clear 10 - - - -
01/10:00am 26.4 SSE 11 16 1016.6 - 0.0 - Mostly clear 10 - - - -
01/09:30am 25.7 S 10 15 1016.7 - 0.0 - Mostly clear 10 - - - -
01/09:00am 25.4 SE 7 11 1016.5 R 2.2 Rain Cloudy 10 - - - -
01/08:44am 24.8 SE 7 10 1016.5 - 2.2 Showers Mostly clear 7 - - - -
01/08:30am 25.3 SE 8 11 1016.4 - 0.6 Showers Partly cloudy 3 - - - -
01/08:21am 26.0 SE 7 10 1016.3 - 0.2 Showers Partly cloudy 3 - - - -
01/08:00am 26.1 SSE 7 13 1015.9 - 0.2 - Mostly clear 10 - - - -
01/07:48am 26.0 SSE 8 14 1015.6 - 0.2 Showers Mostly clear 10 - - - -
01/07:30am 25.8 S 9 13 1015.7 - 0.2 Showers Mostly clear 9 - - - -
01/07:00am 25.8 S 10 17 1015.5 - 0.2 - Mostly clear 10 - - - -
01/06:30am 25.4 S 10 14 1015.2 - 0.2 - Partly cloudy 10 - - - -
01/06:00am 25.5 S 10 15 1014.8 R 0.2 Showers Mostly clear 10 - - - -
01/05:30am 25.4 SSE 9 14 1014.6 - 0.2 - Mostly clear 10 - - - -
01/05:00am 25.6 S 9 14 1014.2 - 0.2 - Mostly clear 10 - - - -
01/04:30am 25.4 SSE 8 13 1014.2 - 0.2 - Mostly clear 10 - - - -
01/04:00am 25.6 S 9 14 1014.1 - 0.2 - Mostly clear 10 - - - -
01/03:30am 25.6 S 9 14 1014.1 - 0.2 - Mostly clear 10 - - - -
01/03:00am 25.4 S 11 17 1014.1 R 0.2 Showers Mostly clear 10 - - - -
01/02:30am 25.2 S 8 14 1014.3 - 0.2 - Mostly clear 10 - - - -
01/02:00am 25.8 S 9 14 1014.5 - 0.2 - Mostly clear 10 - - - -
01/01:30am 25.4 S 11 16 1014.7 - 0.2 - Mostly clear 10 - - - -
01/01:00am 25.4 S 11 16 1014.7 - 0.2 - Mostly clear 10 - - - -
01/12:30am 25.4 S 11 18 1014.8 - 0.2 - Mostly clear 10 - - - -
01/12:00am 25.3 S 10 16 1015.1 F 0.2 Showers Mostly clear 10 - - - -
 
Date/Time
EST
Temp

°C
Wind Pressure Rain
since 9am
mm
Weather Cloud Vis
km
Sea
Height
m
Swell
Dir
 
Speed
knots
Gust
knots
hPa Trend Height
m
Period
s
Dir
30/11:30pm 25.5 S 9 13 1015.3 - 0.2 - Mostly clear 10 - - - -
30/11:00pm 25.7 S 9 13 1015.5 - 0.2 - Mostly clear 10 - - - -
30/10:30pm 26.0 SSE 10 15 1015.7 - 0.2 - Mostly clear 10 - - - -
30/10:00pm 26.0 S 9 13 1015.6 - 0.2 - Mostly clear 10 - - - -
30/09:30pm 25.9 S 9 15 1015.5 - 0.2 - Mostly clear 10 - - - -
30/09:00pm 25.8 SSE 7 12 1015.4 S 0.2 Showers Mostly clear 10 - - - -
30/08:30pm 25.6 S 10 16 1015.2 - 0.2 - Mostly clear 10 - - - -
30/08:00pm 25.4 S 10 15 1015.1 - 0.2 - Mostly clear 10 - - - -
30/07:30pm 25.2 S 10 16 1014.8 - 0.2 - Mostly clear 10 - - - -
30/07:00pm 25.9 SSE 7 10 1014.5 - 0.2 - Mostly clear 10 - - - -
30/06:30pm 26.5 SSE 9 12 1013.9 - 0.2 - Mostly clear 10 - - - -
30/06:00pm 26.8 SE 14 18 1013.7 F 0.2 Fine Mostly clear 10 - - - -
30/05:30pm 27.2 SE 13 17 1013.5 - 0.2 - Mostly clear 10 - - - -
30/05:00pm 27.5 SE 14 17 1013.3 - 0.2 - Mostly clear 10 - - - -
30/04:30pm 27.6 SE 12 16 1013.3 - 0.2 - Mostly clear 10 - - - -
30/04:00pm 27.3 SE 12 15 1013.2 - 0.2 - Mostly clear 10 - - - -
30/03:30pm 28.9 SE 13 15 1012.9 - 0.2 - Mostly clear 10 - - - -
30/03:00pm 28.5 SE 12 16 1013.1 F 0.2 Fine Mostly clear 10 - - - -
30/02:30pm 29.4 SE 13 17 1013.1 - 0.2 - Mostly clear 10 - - - -
30/02:00pm 29.7 SE 15 20 1013.4 - 0.2 - Mostly clear 10 - - - -
30/01:30pm 29.5 SE 13 17 1013.7 - 0.2 - Mostly clear 10 - - - -
30/01:00pm 29.1 SE 16 19 1014.0 - 0.2 - Mostly clear 10 - - - -
30/12:30pm 29.4 SE 13 18 1014.4 - 0.2 - Mostly clear 10 - - - -
30/12:00pm 28.2 SE 17 23 1015.0 F 0.2 Fine Mostly clear 10 - - - -
30/11:30am 28.9 SE 12 18 1015.4 - 0.2 - Mostly clear 10 - - - -
30/11:00am 28.5 SE 14 17 1015.8 - 0.2 - Partly cloudy 10 - - - -
30/10:30am 28.2 SSE 10 14 1016.1 - 0.2 - Mostly clear 10 - - - -
30/10:00am 27.9 SSE 11 14 1016.4 - 0.2 - Mostly clear 10 - - - -
30/09:30am 28.0 SSE 10 13 1016.4 - 0.0 - Mostly clear 10 - - - -
30/09:00am 26.9 S 9 15 1016.3 S 20.2 - Mostly clear 10 - - - -
30/08:30am 26.2 SSE 9 14 1016.1 - 20.2 - Mostly clear 10 - - - -
30/08:00am 25.4 S 10 16 1016.0 - 20.2 - Mostly clear 10 - - - -
30/07:30am 25.3 S 10 15 1015.9 - 20.2 - Mostly clear 10 - - - -

Other Formats:

Comma delimited format used in spreadsheet applications
http://www.bom.gov.au/fwo/IDQ60701/IDQ60701.94287.axf

JavaScript Object Notation format (JSON) in row-major order
http://www.bom.gov.au/fwo/IDQ60701/IDQ60701.94287.json